Time;durP1;ratioP1;P1;durP2;ratioP2;P2;SDS_P1;SDS_P2;PMS_P1;PMS_P2;Temp;Humidity;BMP_temperature;BMP_pressure;BME280_temperature;BME280_humidity;BME280_pressure;Samples;Min_cycle;Max_cycle;Signal;HPM_P1;HPM_P2
2022/11/25 00:01:10;;;;;;;1.33;0.80;;;1.00;99.90;;;;;;5047364;28;20499;-73
2022/11/25 00:03:38;;;;;;;0.90;0.73;;;1.00;99.90;;;;;;5045390;28;20427;-73
2022/11/25 00:06:15;;;;;;;1.07;0.87;;;1.10;99.90;;;;;;5049864;28;20474;-73
2022/11/25 00:08:44;;;;;;;0.77;0.77;;;1.20;99.90;;;;;;5046242;28;20431;-73
2022/11/25 00:11:12;;;;;;;1.23;1.23;;;1.20;99.90;;;;;;5043091;28;20424;-74
2022/11/25 00:13:39;;;;;;;2.10;1.80;;;1.20;99.90;;;;;;5050358;28;20904;-74
2022/11/25 00:16:09;;;;;;;1.65;0.77;;;1.20;99.90;;;;;;5043352;28;20951;-73
2022/11/25 00:18:36;;;;;;;1.83;1.40;;;1.00;99.90;;;;;;5049728;28;20926;-73
2022/11/25 00:21:08;;;;;;;1.55;1.45;;;1.00;99.90;;;;;;5043240;28;20431;-74
2022/11/25 00:23:35;;;;;;;7.40;1.50;;;1.10;99.90;;;;;;5049038;28;20428;-74
2022/11/25 00:26:14;;;;;;;5.87;1.50;;;1.10;99.90;;;;;;5048545;28;20591;-74
2022/11/25 00:28:45;;;;;;;3.38;1.10;;;1.00;99.90;;;;;;5036809;28;20943;-74
2022/11/25 00:31:15;;;;;;;2.80;1.63;;;1.10;99.90;;;;;;5038083;28;20917;-74
2022/11/25 00:33:45;;;;;;;1.20;0.98;;;1.20;99.90;;;;;;5041258;28;20437;-74
2022/11/25 00:36:22;;;;;;;3.03;1.17;;;1.40;99.90;;;;;;5050311;28;20483;-74
2022/11/25 00:38:54;;;;;;;1.42;0.82;;;1.80;99.90;;;;;;5047388;28;20429;-74
2022/11/25 00:46:56;;;;;;;1.75;1.65;;;2.10;99.90;;;;;;5044612;28;20471;-74
2022/11/25 00:49:24;;;;;;;1.80;0.73;;;2.20;99.90;;;;;;5041817;28;20433;-74
2022/11/25 00:51:51;;;;;;;1.95;1.73;;;2.20;99.90;;;;;;5043518;28;20423;-74
2022/11/25 00:54:17;;;;;;;4.32;2.50;;;2.20;99.90;;;;;;5047058;28;20433;-74
2022/11/25 00:56:44;;;;;;;1.65;1.50;;;2.20;99.90;;;;;;5049714;28;20967;-74
2022/11/25 00:59:14;;;;;;;3.20;1.60;;;2.10;99.90;;;;;;5042641;28;20433;-74
2022/11/25 01:01:40;;;;;;;1.45;0.63;;;2.10;99.90;;;;;;5049594;28;20433;-75
2022/11/25 01:04:08;;;;;;;1.00;0.50;;;2.00;99.90;;;;;;5048105;28;20541;-75
2022/11/25 01:06:36;;;;;;;0.93;0.93;;;2.00;99.90;;;;;;5049969;28;20487;-74
2022/11/25 01:09:06;;;;;;;0.70;0.70;;;2.00;99.90;;;;;;5046316;28;20421;-74
2022/11/25 01:11:34;;;;;;;1.30;1.20;;;2.10;99.90;;;;;;5050247;28;20525;-74
2022/11/25 01:14:00;;;;;;;2.20;1.00;;;2.10;99.90;;;;;;5047050;28;20433;-74
2022/11/25 01:16:30;;;;;;;1.42;1.33;;;2.20;99.90;;;;;;5044306;28;21064;-74
2022/11/25 01:18:59;;;;;;;1.05;1.00;;;2.30;99.90;;;;;;5048152;28;20429;-74
2022/11/25 01:21:28;;;;;;;1.45;1.00;;;2.30;99.90;;;;;;5042192;28;20440;-74
2022/11/25 01:23:57;;;;;;;0.55;0.55;;;2.30;99.90;;;;;;5041801;28;20432;-74
2022/11/25 01:26:24;;;;;;;0.77;0.77;;;2.30;99.90;;;;;;5043191;28;20460;-74
2022/11/25 01:29:05;;;;;;;0.80;0.80;;;2.30;99.90;;;;;;5038625;28;20433;-74
2022/11/25 01:31:36;;;;;;;2.25;0.98;;;2.30;99.90;;;;;;5044482;28;20432;-74
2022/11/25 01:34:10;;;;;;;2.60;1.20;;;2.30;99.90;;;;;;5048534;28;20433;-74
2022/11/25 01:36:38;;;;;;;1.13;1.02;;;2.30;99.90;;;;;;5049322;28;20444;-74
2022/11/25 01:39:05;;;;;;;3.50;0.90;;;2.30;99.90;;;;;;5047393;28;20436;-74
2022/11/25 01:41:33;;;;;;;1.48;1.10;;;2.20;99.90;;;;;;5049404;28;20429;-74
2022/11/25 01:44:15;;;;;;;0.40;0.40;;;2.10;99.90;;;;;;5042914;28;20483;-74
2022/11/25 01:47:02;;;;;;;1.70;1.20;;;1.90;99.90;;;;;;5045619;28;20437;-74
2022/11/25 01:49:47;;;;;;;1.90;1.10;;;1.80;99.90;;;;;;5046246;28;20434;-74
2022/11/25 01:52:42;;;;;;;1.10;0.80;;;1.80;99.90;;;;;;5035291;28;20799;-74
2022/11/25 01:55:19;;;;;;;0.40;0.40;;;1.90;99.90;;;;;;5048737;28;20448;-74
2022/11/25 01:57:50;;;;;;;0.30;0.30;;;2.00;99.90;;;;;;5039942;28;20466;-74
2022/11/25 02:00:17;;;;;;;0.50;0.50;;;2.10;99.90;;;;;;5042545;28;20441;-74
2022/11/25 02:02:46;;;;;;;1.77;1.00;;;2.10;99.90;;;;;;5042830;28;20979;-74
2022/11/25 02:05:17;;;;;;;5.70;0.40;;;2.20;99.90;;;;;;5062715;28;20508;-75
2022/11/25 02:07:47;;;;;;;0.40;0.40;;;2.20;99.90;;;;;;5067204;28;20489;-74
2022/11/25 02:10:27;;;;;;;4.07;0.82;;;2.20;99.90;;;;;;5040231;28;20459;-74
2022/11/25 02:12:54;;;;;;;0.80;0.63;;;2.20;99.90;;;;;;5048222;28;20429;-74
2022/11/25 02:15:21;;;;;;;3.60;0.60;;;2.20;99.90;;;;;;5037333;28;20424;-74
2022/11/25 02:17:48;;;;;;;0.40;0.40;;;2.20;99.90;;;;;;5042564;28;20431;-74
2022/11/25 02:20:20;;;;;;;0.40;0.40;;;2.10;99.90;;;;;;5048948;28;20434;-74
2022/11/25 02:23:08;;;;;;;0.80;0.70;;;2.10;99.90;;;;;;5043096;28;20428;-74
2022/11/25 02:25:38;;;;;;;0.80;0.80;;;2.10;99.90;;;;;;5049025;28;20440;-74
2022/11/25 02:28:11;;;;;;;0.30;0.30;;;2.10;99.90;;;;;;5044317;28;20796;-74
2022/11/25 02:30:38;;;;;;;1.10;1.10;;;2.00;99.90;;;;;;5038115;28;20460;-74
2022/11/25 02:33:05;;;;;;;0.80;0.80;;;2.00;99.90;;;;;;5044060;28;20437;-74
2022/11/25 02:35:38;;;;;;;4.00;0.70;;;2.00;99.90;;;;;;5046046;28;20433;-74
2022/11/25 02:38:29;;;;;;;0.50;0.50;;;2.00;99.90;;;;;;5048245;28;20795;-74
2022/11/25 02:41:06;;;;;;;0.50;0.50;;;2.00;99.90;;;;;;5047038;28;20455;-74
2022/11/25 02:43:33;;;;;;;3.47;1.85;;;1.90;99.90;;;;;;5040609;28;20438;-74
2022/11/25 02:46:09;;;;;;;0.98;0.77;;;1.90;99.90;;;;;;5050190;28;21051;-74
2022/11/25 02:48:38;;;;;;;0.60;0.50;;;1.90;99.90;;;;;;5051595;28;20432;-74
2022/11/25 02:51:28;;;;;;;0.83;0.83;;;1.90;99.90;;;;;;5039722;28;20869;-74
2022/11/25 02:53:56;;;;;;;0.80;0.80;;;1.80;99.90;;;;;;5048919;28;20428;-74
2022/11/25 02:56:30;;;;;;;0.60;0.60;;;1.80;99.90;;;;;;5045093;28;20429;-74
2022/11/25 02:59:00;;;;;;;0.50;0.50;;;1.80;99.90;;;;;;5043247;28;20440;-74
2022/11/25 03:01:29;;;;;;;0.47;0.47;;;1.80;99.90;;;;;;5046606;28;20505;-74
2022/11/25 03:03:57;;;;;;;0.60;0.60;;;1.80;99.90;;;;;;5046532;28;20511;-74
2022/11/25 03:06:24;;;;;;;1.65;0.65;;;1.90;99.90;;;;;;5048403;28;20791;-74
2022/11/25 03:08:54;;;;;;;1.10;0.70;;;1.90;99.90;;;;;;5051303;28;20429;-74
2022/11/25 03:12:17;;;;;;;1.50;0.60;;;1.90;99.90;;;;;;5043704;28;20461;-74
2022/11/25 03:14:07;;;;;;;2.00;0.80;;;1.90;99.90;;;;;;5041771;28;20524;-74
2022/11/25 03:16:34;;;;;;;0.70;0.70;;;1.90;99.90;;;;;;5036680;28;20442;-74
2022/11/25 03:19:04;;;;;;;0.57;0.57;;;1.90;99.90;;;;;;5034852;28;20431;-74
2022/11/25 03:21:30;;;;;;;0.50;0.47;;;2.00;99.90;;;;;;5043957;28;20444;-74
2022/11/25 03:23:57;;;;;;;1.35;0.95;;;2.00;99.90;;;;;;5050059;28;20491;-74
2022/11/25 03:26:25;;;;;;;0.60;0.60;;;1.90;99.90;;;;;;5035587;28;20757;-74
2022/11/25 03:28:52;;;;;;;2.00;0.80;;;2.00;99.90;;;;;;5051839;28;20429;-74
2022/11/25 03:31:18;;;;;;;0.38;0.38;;;2.00;99.90;;;;;;5047383;28;20492;-74
2022/11/25 03:33:45;;;;;;;1.70;1.00;;;2.00;99.90;;;;;;5047516;28;20512;-74
2022/11/25 03:36:12;;;;;;;0.40;0.40;;;2.00;99.90;;;;;;5049117;28;20439;-73
2022/11/25 03:38:39;;;;;;;5.07;0.65;;;2.10;99.90;;;;;;5048800;28;20486;-74
2022/11/25 03:41:05;;;;;;;0.70;0.70;;;2.10;99.90;;;;;;5042541;28;20430;-74
2022/11/25 03:43:34;;;;;;;2.30;0.90;;;2.20;99.90;;;;;;5045001;28;20425;-74
2022/11/25 03:46:01;;;;;;;1.10;1.00;;;2.20;99.90;;;;;;5048877;28;20425;-74
2022/11/25 03:48:28;;;;;;;0.60;0.60;;;2.20;99.90;;;;;;5045331;28;20493;-74
2022/11/25 03:50:55;;;;;;;1.00;0.70;;;2.20;99.90;;;;;;5043210;28;20423;-73
2022/11/25 03:53:24;;;;;;;2.40;0.68;;;2.20;99.90;;;;;;5046286;28;20428;-74
2022/11/25 03:55:51;;;;;;;1.02;0.60;;;2.20;99.90;;;;;;5044391;28;20479;-74
2022/11/25 03:58:18;;;;;;;1.10;0.90;;;2.20;99.90;;;;;;5045348;28;20436;-74
2022/11/25 04:00:44;;;;;;;0.60;0.60;;;2.30;99.90;;;;;;5038529;28;20440;-74
2022/11/25 04:03:11;;;;;;;0.80;0.80;;;2.30;99.90;;;;;;5039854;28;20824;-74
2022/11/25 04:05:38;;;;;;;0.30;0.30;;;2.40;99.90;;;;;;5044883;28;20435;-74
2022/11/25 04:08:05;;;;;;;1.10;0.60;;;2.40;99.90;;;;;;5044842;28;20431;-74
2022/11/25 04:10:32;;;;;;;1.00;0.95;;;2.50;99.90;;;;;;5040460;28;20466;-75
2022/11/25 04:12:59;;;;;;;0.30;0.30;;;2.50;99.90;;;;;;5043550;28;20772;-75
2022/11/25 04:15:25;;;;;;;0.30;0.30;;;2.60;99.90;;;;;;5046105;28;20429;-74
2022/11/25 04:17:52;;;;;;;0.45;0.45;;;2.50;99.90;;;;;;5047266;28;20792;-75
2022/11/25 04:20:19;;;;;;;0.60;0.60;;;2.60;99.90;;;;;;5048702;28;20437;-74
2022/11/25 04:22:46;;;;;;;0.80;0.80;;;2.60;99.90;;;;;;5047162;28;20434;-75
2022/11/25 04:25:12;;;;;;;0.70;0.70;;;2.70;99.90;;;;;;5042897;28;20516;-75
2022/11/25 04:27:39;;;;;;;1.50;0.73;;;2.80;99.90;;;;;;5042895;28;20433;-75
2022/11/25 04:30:10;;;;;;;0.60;0.60;;;2.80;99.90;;;;;;5047214;28;20528;-75
2022/11/25 04:32:37;;;;;;;1.20;0.38;;;2.80;99.90;;;;;;5043149;28;20448;-75
2022/11/25 04:35:07;;;;;;;0.90;0.90;;;2.90;99.90;;;;;;5047223;28;20456;-75
2022/11/25 04:37:34;;;;;;;0.70;0.70;;;3.00;99.90;;;;;;5042450;28;21141;-75
2022/11/25 04:40:01;;;;;;;3.60;0.63;;;3.00;99.90;;;;;;5048505;28;20961;-75
2022/11/25 04:42:31;;;;;;;0.65;0.65;;;3.00;99.90;;;;;;5045753;28;20441;-75
2022/11/25 04:45:03;;;;;;;1.00;1.00;;;3.00;99.90;;;;;;5046290;28;20429;-74
2022/11/25 04:47:52;;;;;;;0.68;0.68;;;3.00;99.90;;;;;;5044044;28;20475;-74
2022/11/25 04:50:21;;;;;;;0.43;0.43;;;3.00;99.90;;;;;;5042762;28;20421;-74
2022/11/25 04:52:49;;;;;;;0.70;0.70;;;3.00;99.90;;;;;;5049579;28;20425;-75
2022/11/25 04:55:15;;;;;;;2.50;0.82;;;2.90;99.90;;;;;;5046026;28;20436;-75
2022/11/25 04:57:42;;;;;;;0.70;0.60;;;2.80;99.90;;;;;;5040524;28;20465;-75
2022/11/25 05:00:10;;;;;;;1.00;0.70;;;2.70;99.90;;;;;;5041552;28;20977;-75
2022/11/25 05:02:37;;;;;;;0.57;0.57;;;2.70;99.90;;;;;;5039324;28;20463;-75
2022/11/25 05:05:04;;;;;;;0.90;0.70;;;2.60;99.90;;;;;;5049597;28;20451;-75
2022/11/25 05:07:31;;;;;;;0.90;0.90;;;2.50;99.90;;;;;;5049076;28;20831;-75
2022/11/25 05:09:58;;;;;;;1.40;0.80;;;2.50;99.90;;;;;;5046761;28;20421;-74
2022/11/25 05:12:27;;;;;;;0.85;0.70;;;2.60;99.90;;;;;;5048415;28;20915;-75
2022/11/25 05:14:54;;;;;;;0.82;0.82;;;2.60;99.90;;;;;;5041136;28;20516;-75
2022/11/25 05:17:24;;;;;;;0.95;0.77;;;2.60;99.90;;;;;;5049102;28;20439;-75
2022/11/25 05:19:51;;;;;;;1.17;1.05;;;2.70;99.90;;;;;;5043923;28;20436;-75
2022/11/25 05:22:21;;;;;;;1.00;0.70;;;2.70;99.90;;;;;;5049208;28;20498;-74
2022/11/25 05:24:48;;;;;;;2.33;0.80;;;2.80;99.90;;;;;;5046846;28;20432;-75
2022/11/25 05:27:18;;;;;;;1.77;0.80;;;2.80;99.90;;;;;;5047738;28;20846;-75
2022/11/25 05:29:45;;;;;;;1.40;1.07;;;2.90;99.90;;;;;;5041867;28;20429;-75
2022/11/25 05:32:18;;;;;;;2.70;1.90;;;2.90;99.90;;;;;;5046118;28;20471;-75
2022/11/25 05:34:45;;;;;;;2.03;1.05;;;2.90;99.90;;;;;;5043053;28;20437;-75
2022/11/25 05:37:13;;;;;;;0.95;0.95;;;2.90;99.90;;;;;;5046667;28;20521;-75
2022/11/25 05:39:46;;;;;;;1.90;0.97;;;2.90;99.90;;;;;;5047241;28;20439;-75
2022/11/25 05:42:13;;;;;;;1.92;1.73;;;3.00;99.90;;;;;;5048874;28;20888;-75
2022/11/25 05:44:40;;;;;;;1.48;1.40;;;2.90;99.90;;;;;;5044952;28;20464;-75
2022/11/25 05:47:06;;;;;;;0.80;0.80;;;2.90;99.90;;;;;;5045655;28;20433;-75
2022/11/25 05:49:33;;;;;;;2.03;0.73;;;2.90;99.90;;;;;;5042541;28;20944;-75
2022/11/25 05:52:00;;;;;;;0.80;0.77;;;2.90;99.90;;;;;;5039234;28;20428;-74
2022/11/25 05:54:27;;;;;;;0.75;0.60;;;2.90;99.90;;;;;;5039533;28;20434;-75
2022/11/25 05:56:53;;;;;;;0.80;0.68;;;3.00;99.90;;;;;;5048883;28;20437;-75
2022/11/25 05:59:20;;;;;;;1.00;1.00;;;3.00;99.90;;;;;;5045987;28;20431;-75
2022/11/25 06:01:47;;;;;;;0.75;0.65;;;3.00;99.90;;;;;;5038504;28;20430;-75
2022/11/25 06:04:13;;;;;;;0.68;0.68;;;2.90;99.90;;;;;;5045331;28;20427;-75
2022/11/25 06:06:40;;;;;;;0.40;0.40;;;3.00;99.90;;;;;;5037342;28;20897;-75
2022/11/25 06:09:07;;;;;;;2.20;0.70;;;3.00;99.90;;;;;;5046189;28;20433;-75
2022/11/25 06:11:33;;;;;;;0.50;0.50;;;3.00;99.90;;;;;;5039455;28;20453;-74
2022/11/25 06:14:02;;;;;;;2.17;1.30;;;3.00;99.90;;;;;;5041163;28;21025;-72
2022/11/25 06:16:29;;;;;;;13.13;7.27;;;3.00;99.90;;;;;;5047247;28;20559;-72
2022/11/25 06:18:56;;;;;;;2.50;1.33;;;3.00;99.90;;;;;;5045466;28;20437;-73
2022/11/25 06:21:23;;;;;;;0.73;0.73;;;3.00;99.90;;;;;;5048498;28;20464;-74
2022/11/25 06:23:51;;;;;;;0.93;0.93;;;3.00;99.90;;;;;;5041948;28;20441;-75
2022/11/25 06:26:20;;;;;;;1.20;0.80;;;3.00;99.90;;;;;;5039912;28;20433;-73
2022/11/25 06:28:51;;;;;;;0.65;0.65;;;3.00;99.90;;;;;;5040633;28;20467;-73
2022/11/25 06:31:22;;;;;;;1.45;0.77;;;3.00;99.90;;;;;;5039785;28;20433;-73
2022/11/25 06:33:51;;;;;;;1.38;0.57;;;3.10;99.90;;;;;;5040140;28;20423;-71
2022/11/25 06:36:20;;;;;;;1.17;1.08;;;3.10;99.90;;;;;;5048905;28;20433;-72
2022/11/25 06:38:49;;;;;;;1.10;0.90;;;3.20;99.90;;;;;;5047854;28;20959;-72
2022/11/25 06:41:17;;;;;;;1.00;0.90;;;3.20;99.90;;;;;;5034588;28;20434;-72
2022/11/25 06:43:44;;;;;;;2.00;1.20;;;3.20;99.90;;;;;;5052407;28;20544;-72
2022/11/25 06:46:14;;;;;;;1.70;1.60;;;3.30;99.90;;;;;;5044631;28;20484;-72
2022/11/25 06:48:48;;;;;;;1.38;1.27;;;3.30;99.90;;;;;;5042579;28;20436;-71
2022/11/25 06:51:15;;;;;;;3.45;1.33;;;3.30;99.90;;;;;;5042871;28;20425;-72
2022/11/25 06:53:42;;;;;;;1.13;1.13;;;3.30;99.90;;;;;;5039309;28;20462;-72
2022/11/25 06:56:18;;;;;;;0.55;0.55;;;3.30;99.90;;;;;;5041674;28;20438;-72
2022/11/25 06:58:46;;;;;;;3.10;0.90;;;3.40;99.90;;;;;;5036288;28;20422;-72
2022/11/25 07:01:19;;;;;;;5.50;0.82;;;3.30;99.90;;;;;;5034297;28;20466;-72
2022/11/25 07:03:48;;;;;;;1.77;0.80;;;3.40;99.90;;;;;;5042950;28;20535;-72
2022/11/25 07:06:16;;;;;;;0.60;0.60;;;3.40;99.90;;;;;;5026914;28;20876;-72
2022/11/25 07:08:43;;;;;;;6.32;1.55;;;3.50;99.90;;;;;;5037486;28;20440;-73
2022/11/25 07:11:22;;;;;;;3.65;1.17;;;3.50;99.90;;;;;;5027777;28;20994;-72
2022/11/25 07:13:57;;;;;;;0.80;0.80;;;3.60;99.90;;;;;;5033357;28;20425;-72
2022/11/25 07:16:25;;;;;;;0.90;0.70;;;3.60;99.90;;;;;;5040962;28;20513;-72
2022/11/25 07:18:51;;;;;;;0.60;0.60;;;3.60;99.90;;;;;;5034946;28;20437;-72
2022/11/25 07:21:21;;;;;;;1.10;1.00;;;3.70;99.90;;;;;;5037001;28;23018;-72
2022/11/25 07:23:49;;;;;;;0.50;0.50;;;3.80;99.90;;;;;;5040776;28;20438;-72
2022/11/25 07:26:17;;;;;;;0.52;0.52;;;3.80;99.90;;;;;;5041913;28;21129;-72
2022/11/25 07:28:49;;;;;;;0.57;0.57;;;3.90;99.90;;;;;;5038553;28;20543;-72
2022/11/25 07:31:20;;;;;;;0.50;0.50;;;3.90;99.90;;;;;;5041782;28;20459;-72
2022/11/25 07:33:52;;;;;;;0.45;0.45;;;4.00;99.90;;;;;;5045109;28;20791;-72
2022/11/25 07:36:19;;;;;;;0.90;0.70;;;3.90;99.90;;;;;;5042199;28;20427;-72
2022/11/25 07:38:46;;;;;;;0.40;0.40;;;4.00;99.90;;;;;;5046143;28;20429;-72
2022/11/25 07:41:21;;;;;;;0.80;0.80;;;4.00;99.90;;;;;;5048803;28;20508;-72
2022/11/25 07:43:52;;;;;;;0.82;0.82;;;4.10;99.90;;;;;;5048863;28;20433;-72
2022/11/25 07:46:21;;;;;;;0.60;0.60;;;4.10;99.90;;;;;;5049249;28;20459;-72
2022/11/25 07:48:56;;;;;;;0.50;0.50;;;4.20;99.90;;;;;;5025597;28;20443;-72
2022/11/25 07:51:30;;;;;;;0.68;0.68;;;4.20;99.90;;;;;;5038855;28;20457;-72
2022/11/25 07:53:58;;;;;;;0.80;0.80;;;4.20;99.90;;;;;;5038417;28;20906;-72
2022/11/25 07:56:25;;;;;;;1.00;0.70;;;4.20;99.90;;;;;;5041535;28;20449;-72
2022/11/25 07:58:52;;;;;;;0.40;0.40;;;4.40;99.90;;;;;;5043701;28;20437;-72
2022/11/25 08:01:19;;;;;;;1.05;0.75;;;4.60;99.90;;;;;;5046056;28;20549;-72
2022/11/25 08:03:50;;;;;;;0.50;0.50;;;4.70;99.90;;;;;;5041169;28;21119;-72
2022/11/25 08:06:28;;;;;;;0.50;0.40;;;4.80;99.90;;;;;;5041017;28;20442;-72
2022/11/25 08:08:56;;;;;;;0.28;0.28;;;4.80;99.90;;;;;;5059710;28;20433;-72
2022/11/25 08:11:26;;;;;;;0.40;0.40;;;4.80;99.90;;;;;;5045277;28;20425;-72
2022/11/25 08:13:55;;;;;;;0.77;0.40;;;4.80;99.90;;;;;;5047285;28;20478;-72
2022/11/25 08:16:25;;;;;;;1.05;0.73;;;4.80;99.90;;;;;;5050543;28;20433;-72
2022/11/25 08:18:57;;;;;;;0.50;0.45;;;4.70;99.90;;;;;;5044146;28;20433;-72
2022/11/25 08:21:24;;;;;;;1.50;1.33;;;4.70;99.90;;;;;;5050408;28;20441;-72
2022/11/25 08:23:52;;;;;;;0.70;0.70;;;4.70;99.90;;;;;;5045812;28;21078;-72
2022/11/25 08:26:31;;;;;;;0.63;0.63;;;4.80;99.90;;;;;;5047959;28;20429;-72
2022/11/25 08:28:59;;;;;;;0.70;0.70;;;4.80;99.90;;;;;;5033852;28;20439;-72
2022/11/25 08:31:33;;;;;;;0.68;0.65;;;4.80;99.90;;;;;;5051690;28;20491;-72
2022/11/25 08:34:00;;;;;;;0.52;0.52;;;4.90;99.90;;;;;;5048669;28;20471;-72
2022/11/25 08:36:30;;;;;;;5.20;1.13;;;4.90;99.90;;;;;;5047103;28;20508;-72
2022/11/25 08:38:59;;;;;;;2.60;0.70;;;4.90;99.90;;;;;;5049036;28;20434;-72
2022/11/25 08:41:32;;;;;;;0.75;0.75;;;4.90;99.90;;;;;;5047736;28;20433;-72
2022/11/25 08:44:05;;;;;;;1.33;1.25;;;5.00;99.90;;;;;;5041531;28;20433;-72
2022/11/25 08:46:36;;;;;;;0.77;0.77;;;5.10;99.90;;;;;;5047963;28;20495;-72
2022/11/25 08:49:05;;;;;;;0.73;0.73;;;5.20;99.90;;;;;;5040383;28;20461;-72
2022/11/25 08:51:33;;;;;;;1.60;1.02;;;5.20;99.90;;;;;;5042752;28;20426;-71
2022/11/25 08:54:03;;;;;;;0.55;0.55;;;5.30;99.90;;;;;;5047636;28;20931;-72
2022/11/25 08:56:30;;;;;;;2.20;0.93;;;5.50;99.90;;;;;;5037379;28;20516;-72
2022/11/25 08:59:00;;;;;;;0.50;0.50;;;5.50;99.90;;;;;;5045420;28;20426;-73
2022/11/25 09:01:27;;;;;;;2.33;0.50;;;5.40;99.90;;;;;;5049827;28;20440;-71
2022/11/25 09:03:55;;;;;;;2.15;0.73;;;5.40;99.90;;;;;;5048840;28;20520;-70
2022/11/25 09:06:24;;;;;;;0.88;0.88;;;5.40;99.90;;;;;;5049119;28;20537;-70
2022/11/25 09:08:54;;;;;;;0.50;0.50;;;5.40;99.90;;;;;;5046576;28;20426;-71
2022/11/25 09:11:21;;;;;;;1.40;0.60;;;5.30;99.90;;;;;;5043487;28;20429;-71
2022/11/25 09:13:48;;;;;;;0.45;0.45;;;5.30;99.90;;;;;;5045247;28;20460;-71
2022/11/25 09:16:17;;;;;;;0.60;0.60;;;5.50;99.90;;;;;;5044856;28;20431;-71
2022/11/25 09:18:44;;;;;;;1.50;0.88;;;5.60;99.90;;;;;;5041579;28;20492;-71
2022/11/25 09:21:14;;;;;;;0.90;0.40;;;5.80;99.90;;;;;;5046039;28;21079;-71
2022/11/25 09:23:41;;;;;;;0.60;0.60;;;5.80;99.90;;;;;;5047941;28;20440;-71
2022/11/25 09:26:18;;;;;;;0.77;0.77;;;6.00;99.90;;;;;;5042510;28;20440;-71
2022/11/25 09:28:45;;;;;;;4.65;1.20;;;6.30;99.90;;;;;;5059668;28;20426;-71
2022/11/25 09:31:12;;;;;;;0.85;0.85;;;6.40;99.90;;;;;;5043386;28;20424;-71
2022/11/25 09:33:38;;;;;;;1.92;0.75;;;6.50;99.90;;;;;;5046602;28;20468;-71
2022/11/25 09:36:06;;;;;;;0.47;0.47;;;6.60;99.90;;;;;;5047088;28;20785;-70
2022/11/25 09:38:35;;;;;;;2.10;0.80;;;6.60;99.90;;;;;;5049038;28;20931;-70
2022/11/25 09:47:54;;;;;;;1.70;1.02;;;6.90;99.90;;;;;;5044322;28;20562;-71
2022/11/25 09:50:39;;;;;;;2.22;1.08;;;6.90;99.90;;;;;;5044612;28;20437;-70
2022/11/25 09:53:16;;;;;;;1.25;1.13;;;6.90;99.90;;;;;;5042339;28;20558;-70
2022/11/25 09:55:46;;;;;;;1.00;0.93;;;7.10;99.90;;;;;;5047855;28;20440;-70
2022/11/25 09:58:39;;;;;;;0.90;0.90;;;7.20;99.90;;;;;;5045754;28;20788;-70
2022/11/25 10:01:12;;;;;;;1.58;0.90;;;7.10;99.90;;;;;;5033798;28;20947;-71
2022/11/25 10:03:44;;;;;;;3.10;1.00;;;7.10;99.90;;;;;;5044872;28;21171;-70
2022/11/25 10:06:27;;;;;;;0.82;0.82;;;7.00;99.90;;;;;;5041156;28;20433;-71
2022/11/25 10:08:58;;;;;;;1.17;0.85;;;6.90;99.90;;;;;;5041308;28;20899;-71
2022/11/25 10:11:43;;;;;;;1.13;1.13;;;7.10;99.90;;;;;;5047732;28;20434;-70
2022/11/25 10:14:33;;;;;;;1.23;1.20;;;7.20;99.90;;;;;;5048281;28;20421;-71
2022/11/25 10:17:10;;;;;;;0.77;0.77;;;7.10;99.90;;;;;;5046448;28;20426;-71
2022/11/25 10:19:45;;;;;;;0.80;0.73;;;7.10;1.00;;;;;;5046200;28;20516;-71
2022/11/25 10:22:26;;;;;;;4.43;1.35;;;7.20;1.00;;;;;;5047006;28;20425;-71
2022/11/25 10:24:58;;;;;;;0.70;0.70;;;7.20;1.00;;;;;;5043523;28;20437;-71
2022/11/25 10:27:40;;;;;;;1.10;0.90;;;7.10;1.00;;;;;;5042390;28;20943;-71
2022/11/25 10:30:17;;;;;;;0.82;0.73;;;7.20;1.00;;;;;;5038350;28;20438;-71
2022/11/25 10:32:50;;;;;;;0.77;0.77;;;7.10;1.00;;;;;;5040200;28;20459;-70
2022/11/25 10:35:39;;;;;;;2.70;1.45;;;7.20;1.00;;;;;;5042824;28;20465;-71
2022/11/25 10:38:12;;;;;;;0.57;0.57;;;7.30;1.00;;;;;;5038626;28;20440;-71
2022/11/25 10:40:48;;;;;;;2.40;0.63;;;7.40;1.00;;;;;;5036145;28;20421;-71
2022/11/25 10:43:15;;;;;;;2.08;1.10;;;7.90;1.00;;;;;;5045885;28;20799;-71
2022/11/25 10:46:01;;;;;;;1.47;1.07;;;8.60;1.00;;;;;;5047987;28;20444;-71
2022/11/25 10:48:40;;;;;;;0.95;0.90;;;9.30;99.90;;;;;;5036536;28;20427;-71
2022/11/25 10:51:13;;;;;;;0.75;0.75;;;10.00;99.90;;;;;;5040269;28;20847;-72
2022/11/25 10:53:40;;;;;;;1.80;0.70;;;9.90;99.90;;;;;;5045877;28;20496;-72
2022/11/25 10:56:16;;;;;;;1.77;1.08;;;9.70;99.90;;;;;;5041625;28;20429;-72
2022/11/25 10:58:45;;;;;;;3.80;0.70;;;9.40;99.90;;;;;;5037644;28;20484;-72
2022/11/25 11:01:21;;;;;;;2.13;0.93;;;9.30;99.90;;;;;;5043905;28;20439;-72
2022/11/25 11:04:13;;;;;;;1.50;0.98;;;9.30;99.90;;;;;;5043284;28;20438;-72
2022/11/25 11:06:44;;;;;;;0.95;0.95;;;9.80;99.90;;;;;;5037553;28;21088;-72
2022/11/25 11:09:29;;;;;;;3.53;1.20;;;10.20;99.90;;;;;;5045876;28;20528;-71
2022/11/25 11:11:55;;;;;;;2.13;1.38;;;10.60;99.90;;;;;;5045434;28;20908;-71
2022/11/25 11:14:28;;;;;;;0.70;0.70;;;10.40;99.90;;;;;;5044747;28;20427;-73
2022/11/25 11:16:56;;;;;;;6.00;1.27;;;10.10;99.90;;;;;;5042885;28;20517;-73
2022/11/25 11:19:26;;;;;;;1.02;0.88;;;10.30;99.90;;;;;;5047798;28;20524;-72
2022/11/25 11:21:54;;;;;;;0.70;0.70;;;10.40;99.90;;;;;;5037914;28;20913;-71
2022/11/25 11:24:36;;;;;;;2.20;0.98;;;10.50;99.90;;;;;;5035631;28;20429;-71
2022/11/25 11:27:08;;;;;;;0.80;0.80;;;11.20;99.90;;;;;;5040362;28;20486;-72
2022/11/25 11:29:35;;;;;;;1.75;1.15;;;12.30;99.90;;;;;;5035694;28;20439;-72
2022/11/25 11:32:15;;;;;;;0.80;0.80;;;12.20;99.90;;;;;;5034588;28;20528;-72
2022/11/25 11:34:51;;;;;;;1.02;0.93;;;11.60;99.90;;;;;;5031267;28;21207;-72
2022/11/25 11:37:28;;;;;;;1.55;1.20;;;11.10;99.90;;;;;;5034362;28;23326;-72
2022/11/25 11:40:07;;;;;;;1.00;1.00;;;10.90;99.90;;;;;;5043922;28;20493;-72
2022/11/25 11:42:59;;;;;;;0.63;0.63;;;10.40;99.90;;;;;;5042310;28;21102;-72
2022/11/25 11:45:54;;;;;;;0.93;0.93;;;10.20;99.90;;;;;;5039257;28;20818;-72
2022/11/25 11:48:31;;;;;;;2.90;0.93;;;10.20;99.90;;;;;;5036855;28;20444;-73
2022/11/25 11:51:06;;;;;;;0.70;0.70;;;10.10;99.90;;;;;;5037622;28;20513;-72
2022/11/25 11:53:38;;;;;;;1.20;1.10;;;10.30;99.90;;;;;;5043274;28;20855;-72
2022/11/25 11:56:21;;;;;;;2.70;1.10;;;10.20;99.90;;;;;;5046188;28;20438;-73
2022/11/25 11:59:22;;;;;;;0.80;0.77;;;10.40;99.90;;;;;;5036388;28;20796;-73
2022/11/25 12:02:25;;;;;;;2.10;1.00;;;10.80;99.90;;;;;;5039928;28;21027;-72
2022/11/25 12:05:10;;;;;;;0.90;0.80;;;11.30;99.90;;;;;;5045186;28;20437;-73
2022/11/25 12:07:46;;;;;;;1.02;1.02;;;11.40;99.90;;;;;;5045097;28;20433;-73
2022/11/25 12:10:13;;;;;;;1.27;1.08;;;11.50;99.90;;;;;;5038459;28;21235;-72
2022/11/25 12:13:18;;;;;;;0.93;0.93;;;11.20;99.90;;;;;;5050546;28;20440;-73
2022/11/25 12:15:49;;;;;;;1.00;0.90;;;11.30;99.90;;;;;;5036581;28;20433;-72
2022/11/25 12:18:23;;;;;;;0.70;0.70;;;11.40;99.90;;;;;;5044536;28;20784;-72
2022/11/25 12:21:04;;;;;;;1.00;0.90;;;11.50;99.90;;;;;;5041508;28;20429;-73
2022/11/25 12:23:43;;;;;;;0.90;0.90;;;11.50;99.90;;;;;;5043730;28;20440;-73
2022/11/25 12:26:19;;;;;;;1.77;1.23;;;11.50;99.90;;;;;;5038520;28;20505;-73
2022/11/25 12:28:54;;;;;;;1.00;1.00;;;11.30;99.90;;;;;;5042699;28;20429;-73
2022/11/25 12:31:27;;;;;;;1.00;0.90;;;10.90;99.90;;;;;;5036039;28;20449;-73
2022/11/25 12:33:57;;;;;;;0.90;0.80;;;10.40;99.90;;;;;;5043744;28;20429;-73
2022/11/25 12:36:35;;;;;;;1.00;0.88;;;10.20;99.90;;;;;;5037658;28;21409;-72
2022/11/25 12:39:14;;;;;;;1.65;1.38;;;10.10;99.90;;;;;;5045793;28;20518;-73
2022/11/25 12:41:54;;;;;;;1.65;0.82;;;10.00;99.90;;;;;;5039600;28;20438;-73
2022/11/25 12:44:36;;;;;;;2.55;0.95;;;9.80;99.90;;;;;;5043217;28;20433;-73
2022/11/25 12:47:09;;;;;;;0.82;0.82;;;9.60;99.90;;;;;;5041121;28;20433;-73
2022/11/25 12:49:45;;;;;;;1.02;1.02;;;9.30;99.90;;;;;;5041474;28;20445;-73
2022/11/25 12:52:41;;;;;;;1.08;1.08;;;9.10;99.90;;;;;;5044462;28;20435;-73
2022/11/25 12:55:17;;;;;;;0.90;0.90;;;8.90;99.90;;;;;;5039227;28;20903;-72
2022/11/25 12:57:57;;;;;;;0.90;0.70;;;8.70;99.90;;;;;;5040035;28;20429;-73
2022/11/25 13:00:38;;;;;;;1.70;1.00;;;8.60;99.90;;;;;;5044490;28;20516;-73
2022/11/25 13:03:29;;;;;;;1.00;1.00;;;8.60;99.90;;;;;;5049024;28;20474;-72
2022/11/25 13:06:26;;;;;;;1.30;1.23;;;8.80;99.90;;;;;;5049008;28;20436;-72
2022/11/25 13:09:17;;;;;;;1.10;0.88;;;9.20;1.00;;;;;;5032739;28;20439;-73
2022/11/25 13:12:02;;;;;;;5.18;1.65;;;9.50;1.00;;;;;;5045773;28;20437;-72
2022/11/25 13:15:11;;;;;;;1.60;1.23;;;9.70;16.90;;;;;;5037176;28;20429;-72
2022/11/25 13:17:42;;;;;;;0.85;0.80;;;9.90;99.90;;;;;;5041747;28;21018;-72
2022/11/25 13:20:27;;;;;;;4.07;1.27;;;10.10;1.00;;;;;;5046655;28;20919;-72
2022/11/25 13:23:03;;;;;;;1.00;1.00;;;10.30;99.90;;;;;;5040547;28;20449;-73
2022/11/25 13:25:31;;;;;;;0.70;0.70;;;10.30;1.00;;;;;;5045195;28;20438;-73
2022/11/25 13:28:01;;;;;;;1.42;1.02;;;10.20;1.00;;;;;;5042854;28;20468;-73
2022/11/25 13:30:31;;;;;;;2.50;1.27;;;10.10;1.00;;;;;;5044638;28;20432;-73
2022/11/25 13:33:12;;;;;;;0.85;0.85;;;9.90;99.90;;;;;;5034901;28;20439;-74